Casville, North Carolina
Current Conditions -  °F | °C
As of 4:53 PM on Wednesday 22 Oct 2014 (Local Time) from KDAN Reporting Station
Few Clouds Few Clouds  
Wind Chill: 64°   Ceiling: Unl
Heat Index: 64°   Visibility: 10mi
Dew Point: 41°   Wind: 9mph
Humidity: 43%   Direction: 320°NW
Pressure: 30"   Gusts: 20mph
Location:  36.4355°N, 79.5464°W
Report Text: KDAN 222053Z AUTO 32008G17KT 10SM FEW050 18/05 A3000 RMK AO2 SLP152 T01780050 56004
Loading
Personal Weather Stations






























Interactive Weather Map
Tropical Storm Tracking
New forecast layout! Learn more

10-Day Weather Forecast

Advertisements
Track Severe Weather on mobile